createdAt,value
2023-07-18T00:01:52.123Z,100.00
2023-07-18T00:05:55.108Z,100.00
2023-07-18T00:09:59.172Z,100.00
2023-07-18T00:14:03.726Z,100.00
2023-07-18T00:18:08.443Z,100.00
2023-07-18T00:22:11.514Z,100.00
2023-07-18T00:26:15.485Z,100.00
2023-07-18T00:30:20.187Z,100.00
2023-07-18T00:34:23.158Z,100.00
2023-07-18T00:38:26.075Z,100.00
2023-07-18T00:42:29.103Z,100.00
2023-07-18T00:46:33.547Z,100.00
2023-07-18T00:50:37.107Z,100.00
2023-07-18T00:54:40.712Z,100.00
2023-07-18T00:58:43.651Z,100.00
2023-07-18T01:02:48.237Z,100.00
2023-07-18T01:06:51.449Z,100.00
2023-07-18T01:10:54.392Z,100.00
2023-07-18T01:14:57.309Z,100.00
2023-07-18T01:19:01.765Z,100.00
2023-07-18T01:23:06.210Z,100.00
2023-07-18T01:27:09.225Z,100.00
2023-07-18T01:31:12.338Z,100.00
2023-07-18T01:35:18.297Z,100.00
2023-07-18T01:39:24.196Z,100.00
2023-07-18T01:43:27.565Z,100.00
2023-07-18T01:47:32.910Z,100.00
2023-07-18T01:51:35.861Z,100.00
2023-07-18T01:55:40.252Z,100.00
2023-07-18T01:59:43.262Z,100.00
2023-07-18T02:03:46.204Z,100.00
2023-07-18T02:07:50.091Z,100.00
2023-07-18T02:11:54.564Z,100.00
2023-07-18T02:15:57.576Z,100.00
2023-07-18T02:20:00.543Z,100.00
2023-07-18T02:24:04.576Z,100.00
2023-07-18T02:28:09.413Z,100.00
2023-07-18T02:32:12.514Z,100.00
2023-07-18T02:36:15.462Z,100.00
2023-07-18T02:40:19.456Z,100.00
2023-07-18T02:44:23.996Z,100.00
2023-07-18T02:48:27.469Z,100.00
2023-07-18T02:52:30.485Z,100.00
2023-07-18T02:56:33.662Z,100.00
2023-07-18T03:00:38.210Z,100.00
2023-07-18T03:04:41.156Z,100.00
2023-07-18T03:08:44.547Z,100.00
2023-07-18T03:12:47.817Z,100.00
2023-07-18T03:16:52.244Z,100.00
2023-07-18T03:20:55.270Z,100.00
2023-07-18T03:24:58.400Z,100.00
2023-07-18T03:29:01.517Z,100.00
2023-07-18T03:33:05.902Z,100.00
2023-07-18T03:37:10.397Z,100.00
2023-07-18T03:41:13.620Z,100.00
2023-07-18T03:45:16.889Z,100.00
2023-07-18T03:49:21.479Z,100.00
2023-07-18T03:53:24.643Z,100.00
2023-07-18T03:57:28.516Z,100.00
2023-07-18T04:01:32.136Z,100.00
2023-07-18T04:05:36.540Z,100.00
2023-07-18T04:09:39.506Z,100.00
2023-07-18T04:13:42.482Z,100.00
2023-07-18T04:17:45.482Z,100.00
2023-07-18T04:21:50.029Z,100.00
2023-07-18T04:25:57.893Z,100.00
2023-07-18T04:30:00.802Z,100.00
2023-07-18T04:34:03.900Z,100.00
2023-07-18T04:38:11.089Z,100.00
2023-07-18T04:42:14.171Z,100.00
2023-07-18T04:46:17.363Z,100.00
2023-07-18T04:50:20.461Z,100.00
2023-07-18T04:54:24.749Z,100.00
2023-07-18T04:58:28.484Z,100.00
2023-07-18T05:02:31.542Z,100.00
2023-07-18T05:06:34.673Z,100.00
2023-07-18T05:10:40.281Z,100.00
2023-07-18T05:14:43.174Z,100.00
2023-07-18T05:18:46.234Z,100.00
2023-07-18T05:22:49.330Z,100.00
2023-07-18T05:26:54.135Z,100.00
2023-07-18T05:30:57.439Z,100.00
2023-07-18T05:35:00.793Z,100.00
2023-07-18T05:39:04.074Z,100.00
2023-07-18T05:43:08.457Z,100.00
2023-07-18T05:47:11.430Z,100.00
2023-07-18T05:51:14.438Z,100.00
2023-07-18T05:55:17.515Z,100.00
2023-07-18T05:59:21.895Z,100.00
2023-07-18T06:03:25.108Z,100.00
2023-07-18T06:07:28.239Z,100.00
2023-07-18T06:11:31.241Z,100.00
2023-07-18T06:15:35.520Z,100.00
2023-07-18T06:19:38.511Z,100.00
2023-07-18T06:23:41.479Z,100.00
2023-07-18T06:27:44.644Z,100.00
2023-07-18T06:31:49.606Z,100.00
2023-07-18T06:35:53.726Z,100.00
2023-07-18T06:39:56.808Z,100.00
2023-07-18T06:43:59.894Z,100.00
2023-07-18T06:48:04.766Z,100.00
2023-07-18T06:52:08.213Z,100.00
2023-07-18T06:56:11.353Z,100.00
2023-07-18T07:00:14.855Z,100.00
2023-07-18T07:04:20.095Z,100.00
2023-07-18T07:08:24.146Z,100.00
2023-07-18T07:12:36.231Z,100.00
2023-07-18T07:16:40.420Z,100.00
2023-07-18T07:20:45.210Z,100.00
2023-07-18T07:24:48.976Z,100.00
2023-07-18T07:28:52.073Z,100.00
2023-07-18T07:32:55.288Z,100.00
2023-07-18T07:36:59.773Z,100.00
2023-07-18T07:41:02.728Z,100.00
2023-07-18T07:45:06.283Z,100.00
2023-07-18T07:49:09.280Z,100.00
2023-07-18T07:53:13.591Z,100.00
2023-07-18T07:57:16.837Z,100.00
2023-07-18T08:01:21.709Z,100.00
2023-07-18T08:05:25.212Z,100.00
2023-07-18T08:09:29.532Z,100.00
2023-07-18T08:13:32.777Z,100.00
2023-07-18T08:17:35.769Z,100.00
2023-07-18T08:21:38.899Z,100.00
2023-07-18T08:25:45.447Z,100.00
2023-07-18T08:29:48.464Z,100.00
2023-07-18T08:33:51.741Z,100.00
2023-07-18T08:37:55.428Z,100.00
2023-07-18T08:42:00.933Z,100.00
2023-07-18T08:46:06.320Z,100.00
2023-07-18T08:50:11.884Z,100.00
2023-07-18T08:54:15.037Z,100.00
2023-07-18T08:58:20.042Z,100.00
2023-07-18T09:02:23.254Z,100.00
2023-07-18T09:06:26.604Z,100.00
2023-07-18T09:10:30.721Z,100.00
2023-07-18T09:14:36.200Z,100.00
2023-07-18T09:18:40.105Z,100.00
2023-07-18T09:22:43.864Z,100.00
2023-07-18T09:26:49.411Z,95.40
2023-07-18T09:30:53.729Z,94.25
2023-07-18T09:34:57.636Z,100.00
2023-07-18T09:39:00.924Z,100.00
2023-07-18T09:43:03.941Z,100.00
2023-07-18T09:47:08.715Z,100.00
2023-07-18T09:51:12.524Z,100.00
2023-07-18T09:55:15.944Z,100.00
2023-07-18T09:59:19.149Z,100.00
2023-07-18T10:03:23.750Z,100.00
2023-07-18T10:07:27.322Z,100.00
2023-07-18T10:11:30.600Z,100.00
2023-07-18T10:15:53.606Z,100.00
2023-07-18T10:19:57.976Z,100.00
2023-07-18T10:24:22.522Z,100.00
2023-07-18T10:28:42.988Z,100.00
2023-07-18T10:32:54.069Z,100.00
2023-07-18T10:37:00.515Z,100.00
2023-07-18T10:41:03.894Z,100.00
2023-07-18T10:45:07.817Z,100.00
2023-07-18T10:49:12.788Z,100.00
2023-07-18T10:53:18.943Z,100.00
2023-07-18T10:57:25.292Z,100.00
2023-07-18T11:01:29.114Z,100.00
2023-07-18T11:05:32.115Z,97.36
2023-07-18T11:09:36.929Z,94.64
2023-07-18T11:13:44.814Z,92.39
2023-07-18T11:17:48.261Z,99.24
2023-07-18T11:21:51.646Z,100.00
2023-07-18T11:25:56.187Z,99.16
2023-07-18T11:29:59.480Z,96.13
2023-07-18T11:34:02.730Z,94.61
2023-07-18T11:38:05.999Z,84.96
2023-07-18T11:42:10.520Z,79.13
2023-07-18T11:46:13.460Z,78.56
2023-07-18T11:50:16.926Z,74.22
2023-07-18T11:54:19.881Z,79.71
2023-07-18T11:58:25.715Z,66.48
2023-07-18T12:02:29.056Z,78.51
2023-07-18T12:06:32.139Z,79.71
2023-07-18T12:10:35.240Z,80.09
2023-07-18T12:14:39.801Z,75.74
2023-07-18T12:18:42.866Z,74.00
2023-07-18T12:22:45.944Z,72.48
2023-07-18T12:26:49.060Z,65.67
2023-07-18T12:30:53.431Z,68.69
2023-07-18T12:34:57.145Z,68.34
2023-07-18T12:39:00.169Z,60.67
2023-07-18T12:43:03.328Z,64.83
2023-07-18T12:47:08.656Z,60.19
2023-07-18T12:51:11.753Z,59.77
2023-07-18T12:55:14.685Z,57.46
2023-07-18T12:59:17.823Z,58.61
2023-07-18T13:03:22.882Z,58.38
2023-07-18T13:07:26.303Z,62.73
2023-07-18T13:11:29.273Z,58.15
2023-07-18T13:15:32.249Z,60.17
2023-07-18T13:19:36.829Z,60.29
2023-07-18T13:23:39.765Z,60.38
2023-07-18T13:27:42.810Z,59.65
2023-07-18T13:31:46.250Z,58.35
2023-07-18T13:35:50.821Z,59.57
2023-07-18T13:39:53.879Z,63.40
2023-07-18T13:43:56.879Z,53.80
2023-07-18T13:47:59.904Z,51.31
2023-07-18T13:52:04.465Z,48.30
2023-07-18T13:56:07.666Z,55.26
2023-07-18T14:00:11.376Z,54.62
2023-07-18T14:04:17.491Z,59.67
2023-07-18T14:08:22.202Z,57.52
2023-07-18T14:12:25.175Z,53.66
2023-07-18T14:16:28.280Z,54.50
2023-07-18T14:20:31.238Z,52.18
2023-07-18T14:24:35.541Z,49.71
2023-07-18T14:28:38.405Z,53.27
2023-07-18T14:32:41.397Z,53.74
2023-07-18T14:36:44.948Z,52.31
2023-07-18T14:40:50.804Z,50.66
2023-07-18T14:44:54.294Z,54.82
2023-07-18T14:48:57.341Z,56.50
2023-07-18T14:53:00.283Z,58.34
2023-07-18T14:57:04.832Z,55.16
2023-07-18T15:01:08.052Z,52.08
2023-07-18T15:05:11.040Z,53.68
2023-07-18T15:09:14.013Z,49.43
2023-07-18T15:13:18.405Z,48.49
2023-07-18T15:17:21.571Z,48.72
2023-07-18T15:21:24.570Z,49.38
2023-07-18T15:25:27.679Z,48.78
2023-07-18T15:29:32.005Z,50.57
2023-07-18T15:33:37.698Z,55.40
2023-07-18T15:37:40.873Z,53.60
2023-07-18T15:41:43.845Z,55.49
2023-07-18T15:45:49.581Z,54.36
2023-07-18T15:49:53.275Z,56.17
2023-07-18T15:53:56.333Z,53.05
2023-07-18T15:57:59.559Z,52.73
2023-07-18T16:02:05.325Z,56.06
2023-07-18T16:06:08.309Z,56.35
2023-07-18T16:10:11.788Z,53.56
2023-07-18T16:14:15.156Z,54.74
2023-07-18T16:18:19.448Z,50.76
2023-07-18T16:22:22.613Z,51.77
2023-07-18T16:26:25.970Z,59.00
2023-07-18T16:30:29.117Z,53.47
2023-07-18T16:34:33.563Z,49.98
2023-07-18T16:38:37.115Z,47.83
2023-07-18T16:42:40.109Z,45.47
2023-07-18T16:46:43.548Z,56.89
2023-07-18T16:50:47.942Z,67.00
2023-07-18T16:54:50.946Z,66.22
2023-07-18T16:58:54.438Z,60.98
2023-07-18T17:02:57.568Z,66.87
2023-07-18T17:07:02.026Z,69.35
2023-07-18T17:11:05.254Z,77.94
2023-07-18T17:15:08.606Z,78.34
2023-07-18T17:19:11.784Z,88.19
2023-07-18T17:23:16.320Z,98.68
2023-07-18T17:27:19.789Z,98.27
2023-07-18T17:31:22.817Z,94.05
2023-07-18T17:35:26.102Z,85.58
2023-07-18T17:39:30.893Z,86.27
2023-07-18T17:43:34.718Z,79.65
2023-07-18T17:47:38.050Z,78.63
2023-07-18T17:51:41.079Z,80.08
2023-07-18T17:55:45.569Z,84.37
2023-07-18T17:59:49.058Z,90.43
2023-07-18T18:03:52.958Z,95.78
2023-07-18T18:07:55.941Z,99.56
2023-07-18T18:12:00.434Z,100.00
2023-07-18T18:16:08.788Z,100.00
2023-07-18T18:20:12.834Z,100.00
2023-07-18T18:24:15.784Z,100.00
2023-07-18T18:28:22.935Z,100.00
2023-07-18T18:32:25.908Z,100.00
2023-07-18T18:36:28.940Z,100.00
2023-07-18T18:40:31.990Z,100.00
2023-07-18T18:44:36.363Z,100.00
2023-07-18T18:48:39.588Z,100.00
2023-07-18T18:52:42.605Z,100.00
2023-07-18T18:56:45.572Z,100.00
2023-07-18T19:00:49.901Z,100.00
2023-07-18T19:04:53.244Z,100.00
2023-07-18T19:08:56.538Z,100.00
2023-07-18T19:12:59.608Z,100.00
2023-07-18T19:17:04.173Z,100.00
2023-07-18T19:21:07.208Z,100.00
2023-07-18T19:25:10.342Z,100.00
2023-07-18T19:29:13.302Z,100.00
2023-07-18T19:33:17.624Z,100.00
2023-07-18T19:37:20.892Z,100.00
2023-07-18T19:41:24.450Z,100.00
2023-07-18T19:45:27.460Z,100.00
2023-07-18T19:49:31.760Z,100.00
2023-07-18T19:53:34.715Z,100.00
2023-07-18T19:57:37.735Z,100.00
2023-07-18T20:01:40.753Z,100.00
2023-07-18T20:05:45.249Z,100.00
2023-07-18T20:09:48.160Z,100.00
2023-07-18T20:13:51.538Z,100.00
2023-07-18T20:17:54.560Z,100.00
2023-07-18T20:21:59.303Z,100.00
2023-07-18T20:26:02.601Z,100.00
2023-07-18T20:30:06.490Z,100.00
2023-07-18T20:34:09.588Z,100.00
2023-07-18T20:38:13.978Z,100.00
2023-07-18T20:42:17.098Z,100.00
2023-07-18T20:46:20.149Z,100.00
2023-07-18T20:50:23.297Z,100.00
2023-07-18T20:54:29.906Z,100.00
2023-07-18T20:58:32.871Z,100.00
2023-07-18T21:02:35.881Z,100.00
2023-07-18T21:06:38.827Z,100.00
2023-07-18T21:10:43.367Z,100.00
2023-07-18T21:14:46.328Z,100.00
2023-07-18T21:18:49.297Z,100.00
2023-07-18T21:22:53.434Z,100.00
2023-07-18T21:26:57.914Z,100.00
2023-07-18T21:31:00.892Z,100.00
2023-07-18T21:35:04.112Z,100.00
2023-07-18T21:39:07.128Z,100.00
2023-07-18T21:43:12.075Z,100.00
2023-07-18T21:47:15.059Z,100.00
2023-07-18T21:51:18.411Z,100.00
2023-07-18T21:55:21.756Z,100.00
2023-07-18T21:59:27.005Z,100.00
2023-07-18T22:03:29.986Z,100.00
2023-07-18T22:07:33.252Z,100.00
2023-07-18T22:11:36.209Z,100.00
2023-07-18T22:15:40.512Z,100.00
2023-07-18T22:19:44.485Z,100.00
2023-07-18T22:23:47.456Z,100.00
2023-07-18T22:27:50.362Z,100.00
2023-07-18T22:31:54.765Z,100.00
2023-07-18T22:35:57.882Z,100.00
2023-07-18T22:40:00.899Z,100.00
2023-07-18T22:44:03.801Z,100.00
2023-07-18T22:48:08.272Z,100.00
2023-07-18T22:52:13.608Z,100.00
2023-07-18T22:56:17.982Z,100.00
2023-07-18T23:00:21.141Z,100.00
2023-07-18T23:04:25.478Z,100.00
2023-07-18T23:08:47.104Z,100.00
2023-07-18T23:13:08.287Z,100.00
2023-07-18T23:17:11.305Z,100.00
2023-07-18T23:21:15.709Z,100.00
2023-07-18T23:25:18.919Z,100.00
2023-07-18T23:29:22.002Z,100.00
2023-07-18T23:33:25.210Z,100.00
2023-07-18T23:37:29.569Z,100.00
2023-07-18T23:41:32.537Z,100.00
2023-07-18T23:45:35.788Z,100.00
2023-07-18T23:49:38.825Z,100.00
2023-07-18T23:53:43.090Z,100.00
2023-07-18T23:57:46.021Z,100.00
